Sanski Most, Bosnia and Herzegovina
Current Conditions -  °F | °C
As of 7:00 PM on Saturday 25 Oct 2014 (Local Time) from LQBK Reporting Station
Broken Clouds Broken Clouds  
Wind Chill: 46°   Ceiling: 1400
Heat Index: 46°   Visibility: 6mi
Dew Point: 45°   Wind: 2mph
Humidity: 93%   Direction: 60°ENE
Pressure: 30.27"   Gusts: NA
Location:  44.77°N, 16.67°E
Report Text: LQBK 251700Z 06002KT 9999 BKN014 08/07 Q1025 NOSIG
Loading
Personal Weather Stations






























Interactive Weather Map
Tropical Storm Tracking
New forecast layout! Learn more

10-Day Weather Forecast

Advertisements
Track Severe Weather on mobile